Time;durP1;ratioP1;P1;durP2;ratioP2;P2;SDS_P1;SDS_P2;PMS_P1;PMS_P2;Temp;Humidity;BMP_temperature;BMP_pressure;BME280_temperature;BME280_humidity;BME280_pressure;Samples;Min_cycle;Max_cycle;Signal;HPM_P1;HPM_P2
2022/05/19 00:01:24;;;;;;;5.38;1.77;;;13.30;99.90;;;;;;21045564;28;20044;-60
2022/05/19 00:11:32;;;;;;;2.95;2.08;;;13.10;99.90;;;;;;21114603;28;20448;-60
2022/05/19 00:21:34;;;;;;;4.65;2.17;;;13.10;99.90;;;;;;21083027;28;20035;-51
2022/05/19 00:31:37;;;;;;;4.03;2.10;;;13.00;99.90;;;;;;21057007;28;20035;-60
2022/05/19 00:41:44;;;;;;;3.28;2.10;;;13.00;99.90;;;;;;21082818;28;20062;-52
2022/05/19 00:51:51;;;;;;;3.97;1.98;;;12.80;99.90;;;;;;21178358;27;20068;-60
2022/05/19 01:01:55;;;;;;;3.85;2.20;;;12.80;99.90;;;;;;21164923;27;20422;-50
2022/05/19 01:11:58;;;;;;;5.22;2.80;;;12.70;99.90;;;;;;21166432;27;20035;-54
2022/05/19 01:22:13;;;;;;;3.78;2.30;;;12.50;99.90;;;;;;21166191;27;20039;-60
2022/05/19 01:32:28;;;;;;;3.50;2.67;;;12.40;99.90;;;;;;21204811;27;20090;-50
2022/05/19 01:42:49;;;;;;;3.45;2.58;;;12.20;99.90;;;;;;21139612;27;20039;-60
2022/05/19 01:53:18;;;;;;;7.65;3.75;;;12.10;99.90;;;;;;21202643;27;20039;-60
2022/05/19 02:03:59;;;;;;;5.72;3.38;;;12.10;99.90;;;;;;21152362;27;20035;-60
2022/05/19 02:14:09;;;;;;;6.20;3.40;;;12.40;99.90;;;;;;21200453;28;20089;-60
2022/05/19 02:24:15;;;;;;;4.90;3.13;;;12.40;99.90;;;;;;21212265;27;20564;-60
2022/05/19 02:34:18;;;;;;;5.13;2.53;;;12.20;99.90;;;;;;21204186;27;20088;-60
2022/05/19 02:44:20;;;;;;;4.05;3.03;;;12.00;99.90;;;;;;21219791;27;20047;-60
2022/05/19 02:54:23;;;;;;;4.15;2.53;;;11.80;99.90;;;;;;21035076;28;20458;-60
2022/05/19 03:04:26;;;;;;;9.40;2.97;;;11.50;99.90;;;;;;21047084;28;20065;-50
2022/05/19 03:14:31;;;;;;;4.40;2.50;;;11.40;99.90;;;;;;21046842;28;20474;-59
2022/05/19 03:24:33;;;;;;;4.22;2.80;;;11.20;99.90;;;;;;21038519;28;20489;-53
2022/05/19 03:34:36;;;;;;;6.05;3.47;;;11.00;99.90;;;;;;21086759;28;20100;-60
2022/05/19 03:44:38;;;;;;;6.63;5.10;;;10.80;99.90;;;;;;21146393;27;20047;-59
2022/05/19 03:54:41;;;;;;;7.40;4.72;;;10.50;99.90;;;;;;21192567;27;20043;-50
2022/05/19 04:04:44;;;;;;;8.63;6.00;;;10.10;99.90;;;;;;21206658;27;20100;-52
2022/05/19 04:14:48;;;;;;;10.13;6.97;;;9.90;99.90;;;;;;21160741;27;20047;-50
2022/05/19 04:24:50;;;;;;;12.98;8.43;;;9.90;99.90;;;;;;21155686;27;20035;-53
2022/05/19 04:34:53;;;;;;;20.95;9.73;;;10.10;99.90;;;;;;21167533;27;20172;-53
2022/05/19 04:44:56;;;;;;;13.43;8.80;;;10.30;99.90;;;;;;21171205;27;20081;-52
2022/05/19 04:54:59;;;;;;;15.27;8.07;;;10.60;99.90;;;;;;21152254;27;20553;-51
2022/05/19 05:05:02;;;;;;;13.50;8.70;;;10.70;99.90;;;;;;21172022;27;20027;-51
2022/05/19 05:15:05;;;;;;;13.50;7.70;;;10.70;99.90;;;;;;21173078;27;20031;-60
2022/05/19 05:25:14;;;;;;;8.35;5.30;;;10.90;99.90;;;;;;21174328;27;20097;-51
2022/05/19 05:35:17;;;;;;;6.47;4.77;;;11.20;99.90;;;;;;21172840;27;20068;-59
2022/05/19 05:45:20;;;;;;;8.02;3.67;;;11.30;99.90;;;;;;21181128;27;20216;-60
2022/05/19 05:55:23;;;;;;;5.10;3.03;;;11.60;99.90;;;;;;21131657;27;20065;-53
2022/05/19 06:05:26;;;;;;;6.97;3.88;;;11.60;99.90;;;;;;21175663;28;20093;-50
2022/05/19 06:15:29;;;;;;;5.68;3.45;;;11.70;99.90;;;;;;21148376;28;20198;-55
2022/05/19 06:25:32;;;;;;;3.70;2.40;;;13.40;99.90;;;;;;21126991;28;20393;-58
2022/05/19 06:35:37;;;;;;;6.20;2.55;;;17.30;99.90;;;;;;21191017;28;20480;-54
2022/05/19 06:45:40;;;;;;;5.38;2.45;;;20.60;99.40;;;;;;21153914;27;20051;-61
2022/05/19 06:55:43;;;;;;;5.18;2.10;;;21.80;96.70;;;;;;21193007;28;20092;-62
2022/05/19 07:05:45;;;;;;;3.90;2.15;;;23.30;94.50;;;;;;21205154;27;20095;-62
2022/05/19 07:15:48;;;;;;;3.08;1.77;;;24.30;92.30;;;;;;21203146;27;20054;-62
2022/05/19 07:25:53;;;;;;;2.55;2.20;;;25.10;90.30;;;;;;21215541;27;20399;-63
2022/05/19 07:35:56;;;;;;;4.10;2.28;;;24.90;89.30;;;;;;21222183;27;20436;-62
2022/05/19 07:46:02;;;;;;;4.18;2.65;;;24.70;89.70;;;;;;21222039;27;20086;-63
2022/05/19 07:56:05;;;;;;;4.57;2.42;;;24.10;90.30;;;;;;21221802;27;20483;-62
2022/05/19 08:06:10;;;;;;;3.85;2.92;;;23.60;91.50;;;;;;21220270;27;20031;-57
2022/05/19 08:16:12;;;;;;;5.30;2.63;;;23.60;90.50;;;;;;21217011;27;20081;-63
2022/05/19 08:26:15;;;;;;;3.72;2.60;;;23.50;92.50;;;;;;21218791;27;20098;-64
2022/05/19 08:36:21;;;;;;;;;;;23.20;91.90;;;;;;21218155;27;20023;-58
2022/05/19 08:46:33;;;;;;;4.13;2.53;;;23.30;94.20;;;;;;21217236;27;20352;-63
2022/05/19 08:56:44;;;;;;;5.82;3.08;;;24.00;92.70;;;;;;21213133;27;20028;-58
2022/05/19 09:17:32;;;;;;;4.82;2.83;;;24.00;92.10;;;;;;21214698;27;20039;-64
2022/05/19 09:27:39;;;;;;;8.35;3.10;;;23.10;91.50;;;;;;21210705;27;20088;-63
2022/05/19 09:37:45;;;;;;;4.78;2.80;;;23.40;93.10;;;;;;21212272;27;20035;-58
2022/05/19 09:47:57;;;;;;;4.90;2.97;;;23.60;93.10;;;;;;21212262;27;20053;-63
2022/05/19 09:58:02;;;;;;;3.40;3.03;;;22.40;94.40;;;;;;21212097;27;20035;-58
2022/05/19 10:08:19;;;;;;;8.43;2.70;;;23.10;93.40;;;;;;21212589;28;20050;-64
2022/05/19 10:18:49;;;;;;;3.75;2.67;;;23.00;94.40;;;;;;21208258;28;20031;-64
2022/05/19 10:40:03;;;;;;;4.55;3.20;;;23.40;93.30;;;;;;21214538;27;20039;-63
2022/05/19 10:50:19;;;;;;;7.57;3.72;;;22.90;93.00;;;;;;21226338;27;20104;-63
2022/05/19 11:00:34;;;;;;;6.60;2.63;;;23.00;93.00;;;;;;21225520;27;20031;-63
2022/05/19 11:10:45;;;;;;;5.07;3.63;;;23.70;93.70;;;;;;21225127;27;20031;-65
2022/05/19 11:21:03;;;;;;;5.82;3.70;;;23.60;96.30;;;;;;21223846;27;20065;-65
2022/05/19 11:31:13;;;;;;;6.45;4.28;;;24.50;92.30;;;;;;21220188;27;20479;-64
2022/05/19 11:41:28;;;;;;;4.20;3.80;;;23.90;93.60;;;;;;21222395;27;20039;-65
2022/05/19 12:02:04;;;;;;;6.18;4.07;;;24.70;94.90;;;;;;21098917;28;20112;-65
2022/05/19 12:12:24;;;;;;;6.10;4.80;;;25.10;93.40;;;;;;21067848;28;20039;-65
2022/05/19 12:22:36;;;;;;;9.32;4.93;;;25.10;92.70;;;;;;21062582;28;20113;-57
2022/05/19 12:32:44;;;;;;;8.73;4.57;;;24.70;92.90;;;;;;21071488;28;20086;-65
2022/05/19 12:42:48;;;;;;;;;;;24.10;92.10;;;;;;21115649;27;20065;-65
2022/05/19 12:53:09;;;;;;;6.18;4.88;;;24.30;93.30;;;;;;21215362;27;19965;-64
2022/05/19 13:03:24;;;;;;;6.47;4.78;;;24.40;91.40;;;;;;21215207;27;20039;-64
2022/05/19 13:13:40;;;;;;;5.88;3.75;;;24.30;91.60;;;;;;21215424;27;20092;-66
2022/05/19 13:23:45;;;;;;;13.43;4.70;;;24.30;93.10;;;;;;21214593;27;20080;-65
2022/05/19 13:33:51;;;;;;;7.25;3.60;;;24.50;91.10;;;;;;21212240;27;20306;-64
2022/05/19 13:43:54;;;;;;;9.20;4.83;;;24.60;91.60;;;;;;21204509;27;20069;-65
2022/05/19 13:54:02;;;;;;;6.93;4.80;;;24.50;87.00;;;;;;21213221;27;20055;-64
2022/05/19 14:04:09;;;;;;;13.48;3.90;;;24.40;90.50;;;;;;21213269;27;20027;-64
2022/05/19 14:14:23;;;;;;;9.73;4.60;;;24.60;91.30;;;;;;21212955;27;20391;-65
2022/05/19 14:24:25;;;;;;;9.45;3.85;;;24.90;90.40;;;;;;21228530;27;20099;-64
2022/05/19 14:34:41;;;;;;;7.45;3.90;;;25.10;90.60;;;;;;21228016;27;20077;-64
2022/05/19 14:44:48;;;;;;;5.63;4.07;;;25.00;88.50;;;;;;21226614;27;20071;-64
2022/05/19 14:54:54;;;;;;;5.85;4.50;;;25.60;88.10;;;;;;21241225;27;20622;-63
2022/05/19 15:04:56;;;;;;;5.13;4.07;;;25.50;89.20;;;;;;21225580;27;20031;-63
2022/05/19 15:14:59;;;;;;;5.80;4.63;;;25.90;88.20;;;;;;21224850;27;20027;-64
2022/05/19 15:25:04;;;;;;;8.38;4.82;;;26.30;84.80;;;;;;21223757;27;20052;-63
2022/05/19 15:35:07;;;;;;;7.97;5.13;;;26.00;86.30;;;;;;21221253;27;20692;-63
2022/05/19 15:45:11;;;;;;;5.82;3.97;;;25.80;85.60;;;;;;21191124;27;20073;-58
2022/05/19 15:55:17;;;;;;;5.57;4.07;;;24.80;86.70;;;;;;21165800;27;20039;-63
2022/05/19 16:05:41;;;;;;;6.07;4.17;;;23.50;90.60;;;;;;20974056;28;20167;-62
2022/05/19 16:15:45;;;;;;;9.20;5.47;;;22.20;91.80;;;;;;20965381;28;20040;-61
2022/05/19 16:25:49;;;;;;;7.28;4.90;;;20.60;93.30;;;;;;20974936;28;20618;-61
2022/05/19 16:35:53;;;;;;;7.25;5.20;;;19.60;95.80;;;;;;20956483;28;20076;-60
2022/05/19 16:45:57;;;;;;;8.07;4.43;;;18.80;97.10;;;;;;20969694;28;20044;-56
2022/05/19 17:06:23;;;;;;;10.07;5.38;;;17.30;99.20;;;;;;20971284;28;20075;-52
2022/05/19 17:16:27;;;;;;;9.00;6.35;;;16.70;99.90;;;;;;20973686;28;20477;-60
2022/05/19 17:26:30;;;;;;;6.88;5.07;;;16.10;99.90;;;;;;20953070;28;20048;-60
2022/05/19 17:36:38;;;;;;;9.82;6.00;;;15.70;99.90;;;;;;20952160;28;20103;-60
2022/05/19 17:46:41;;;;;;;9.48;5.95;;;15.20;99.90;;;;;;20968551;28;20052;-60
2022/05/19 17:56:43;;;;;;;11.40;6.65;;;14.70;99.90;;;;;;21013198;28;20100;-60
2022/05/19 18:06:46;;;;;;;8.73;6.10;;;14.40;99.90;;;;;;21108269;28;20039;-60
2022/05/19 18:27:18;;;;;;;15.13;6.95;;;13.70;99.90;;;;;;21078629;28;20044;-52
2022/05/19 18:37:23;;;;;;;10.50;6.47;;;13.30;99.90;;;;;;21069904;28;20395;-59
2022/05/19 18:47:28;;;;;;;10.15;6.00;;;13.00;99.90;;;;;;21160272;28;20460;-60
2022/05/19 18:57:30;;;;;;;9.07;6.15;;;12.70;99.90;;;;;;21164291;28;20129;-60
2022/05/19 19:07:33;;;;;;;8.32;6.45;;;12.50;99.90;;;;;;21185109;27;20060;-55
2022/05/19 19:17:36;;;;;;;10.13;7.30;;;12.30;99.90;;;;;;21200187;27;20108;-60
2022/05/19 19:27:41;;;;;;;13.07;6.78;;;12.30;99.90;;;;;;21222942;27;20035;-60
2022/05/19 19:37:47;;;;;;;11.00;7.22;;;12.20;99.90;;;;;;21188522;27;20044;-59
2022/05/19 19:47:51;;;;;;;11.15;6.32;;;12.20;99.90;;;;;;21206224;27;20100;-59
2022/05/19 19:57:54;;;;;;;12.55;7.85;;;12.40;99.90;;;;;;21186139;27;20031;-60
2022/05/19 20:07:58;;;;;;;11.27;7.03;;;12.30;99.90;;;;;;21194189;27;20039;-53
2022/05/19 20:18:02;;;;;;;12.10;8.45;;;12.20;99.90;;;;;;21162648;27;20060;-60
2022/05/19 20:28:05;;;;;;;10.00;6.65;;;12.10;99.90;;;;;;21178019;27;20035;-51
2022/05/19 20:38:09;;;;;;;7.80;6.20;;;12.10;99.90;;;;;;21147204;27;20184;-59
2022/05/19 20:48:12;;;;;;;10.77;7.63;;;12.00;99.90;;;;;;21184241;27;20088;-60
2022/05/19 20:58:16;;;;;;;9.25;6.70;;;11.90;99.90;;;;;;21185149;27;20027;-60
2022/05/19 21:08:19;;;;;;;15.30;8.77;;;11.90;99.90;;;;;;21215530;27;20060;-60
2022/05/19 21:18:24;;;;;;;15.23;10.82;;;11.70;99.90;;;;;;21197923;27;20068;-59
2022/05/19 21:28:27;;;;;;;13.68;9.45;;;11.70;99.90;;;;;;21148535;27;20481;-59
2022/05/19 21:38:32;;;;;;;13.35;8.80;;;11.60;99.90;;;;;;21183212;27;20566;-59
2022/05/19 21:48:37;;;;;;;16.60;11.05;;;11.30;99.90;;;;;;21185218;27;20097;-59
2022/05/19 21:58:40;;;;;;;16.23;10.35;;;11.20;99.90;;;;;;21165912;27;20042;-60
2022/05/19 22:08:46;;;;;;;14.45;8.57;;;11.30;99.90;;;;;;21168562;27;20027;-59
2022/05/19 22:18:50;;;;;;;13.63;9.90;;;11.70;99.90;;;;;;21165813;28;20039;-59
2022/05/19 22:28:52;;;;;;;16.90;10.30;;;11.40;99.90;;;;;;21186388;28;20068;-59
2022/05/19 22:38:55;;;;;;;21.25;12.02;;;11.10;99.90;;;;;;21190584;27;20039;-59
2022/05/19 22:48:57;;;;;;;15.07;9.85;;;10.80;99.90;;;;;;21170766;27;20516;-52
2022/05/19 22:59:00;;;;;;;15.05;10.07;;;10.90;99.90;;;;;;21164331;27;20031;-50
2022/05/19 23:09:02;;;;;;;17.15;10.68;;;11.20;99.90;;;;;;21167092;27;20477;-54
2022/05/19 23:19:06;;;;;;;20.33;13.55;;;11.00;99.90;;;;;;21171939;27;20039;-59
2022/05/19 23:29:08;;;;;;;21.10;12.32;;;10.70;99.90;;;;;;21165540;27;20089;-59
2022/05/19 23:39:11;;;;;;;21.30;12.75;;;10.50;99.90;;;;;;21153441;27;20073;-55
2022/05/19 23:49:13;;;;;;;19.92;13.65;;;10.40;99.90;;;;;;21180870;27;20051;-53
2022/05/19 23:59:15;;;;;;;18.58;12.88;;;10.30;99.90;;;;;;21184990;27;20395;-53
